Time;durP1;ratioP1;P1;durP2;ratioP2;P2;SDS_P1;SDS_P2;PMS_P1;PMS_P2;Temp;Humidity;BMP_temperature;BMP_pressure;BME280_temperature;BME280_humidity;BME280_pressure;Samples;Min_cycle;Max_cycle;Signal;HPM_P1;HPM_P2
2022/01/21 11:38:53;;;;;;;4.70;4.40;;;;;;;;;;1409163;33;22256;-51
2022/01/21 11:39:46;;;;;;;4.20;4.00;;;;;;;;;;1617591;29;23209;-49
2022/01/21 11:40:40;;;;;;;4.43;4.13;;;;;;;;;;1603541;29;22602;-45
2022/01/21 11:41:36;;;;;;;4.30;3.90;;;;;;;;;;1596287;29;22583;-43
2022/01/21 11:42:28;;;;;;;4.78;3.60;;;;;;;;;;1604836;29;22897;-49
2022/01/21 11:43:22;;;;;;;3.83;3.63;;;;;;;;;;1606120;29;22206;-46
2022/01/21 11:44:18;;;;;;;3.75;3.45;;;;;;;;;;1595466;29;21863;-49
2022/01/21 11:45:30;;;;;;;3.50;3.30;;;;;;;;;;1602862;29;21689;-49
2022/01/21 11:46:38;;;;;;;3.25;3.05;;;;;;;;;;1609688;29;22896;-51
2022/01/21 11:47:49;;;;;;;4.45;3.35;;;;;;;;;;1607667;29;21816;-46
2022/01/21 11:48:53;;;;;;;3.88;3.33;;;;;;;;;;1596746;29;22158;-50
2022/01/21 11:49:57;;;;;;;3.47;3.28;;;;;;;;;;1593249;29;22563;-44
2022/01/21 11:50:51;;;;;;;3.78;3.30;;;;;;;;;;1596443;29;22693;-47
2022/01/21 11:51:47;;;;;;;3.22;3.03;;;;;;;;;;1601534;29;22095;-46
2022/01/21 11:52:44;;;;;;;2.90;2.70;;;;;;;;;;1599820;29;27431;-52
2022/01/21 11:53:50;;;;;;;3.35;3.05;;;;;;;;;;1599869;29;22051;-50
2022/01/21 11:54:44;;;;;;;3.28;3.08;;;;;;;;;;1599840;29;22589;-45
2022/01/21 11:55:45;;;;;;;3.30;3.10;;;;;;;;;;1591320;29;22024;-54
2022/01/21 11:56:50;;;;;;;3.17;2.97;;;;;;;;;;1590182;29;21921;-49
2022/01/21 11:57:42;;;;;;;2.75;2.65;;;;;;;;;;1614368;29;22548;-49
2022/01/21 11:58:36;;;;;;;3.10;2.90;;;;;;;;;;1588243;29;22176;-46
2022/01/21 11:59:46;;;;;;;3.00;2.85;;;;;;;;;;1591086;29;23021;-57
2022/01/21 12:00:40;;;;;;;3.05;2.85;;;;;;;;;;1584334;29;27849;-45
2022/01/21 12:01:36;;;;;;;2.92;2.80;;;;;;;;;;1571762;29;23015;-48
2022/01/21 12:02:33;;;;;;;2.72;2.53;;;;;;;;;;1561217;29;23307;-53
2022/01/21 12:03:55;;;;;;;2.80;2.70;;;;;;;;;;1591124;29;22860;-50
2022/01/21 12:04:55;;;;;;;2.88;2.67;;;;;;;;;;1578796;29;23260;-49
2022/01/21 12:05:48;;;;;;;2.97;2.78;;;;;;;;;;1576538;29;22179;-47
2022/01/21 12:06:45;;;;;;;2.58;2.35;;;;;;;;;;1577784;29;22824;-48
2022/01/21 12:07:49;;;;;;;2.85;2.65;;;;;;;;;;1591700;29;22465;-44
2022/01/21 12:08:51;;;;;;;2.72;2.60;;;;;;;;;;1590099;29;21900;-45
2022/01/21 12:09:56;;;;;;;2.83;2.58;;;;;;;;;;1593782;29;22342;-45
2022/01/21 12:10:49;;;;;;;2.20;2.10;;;;;;;;;;1589855;29;22426;-45
2022/01/21 12:11:47;;;;;;;2.70;2.30;;;;;;;;;;1590223;29;22831;-46
2022/01/21 12:13:09;;;;;;;2.60;2.50;;;;;;;;;;1597247;29;22402;-47
2022/01/21 12:14:07;;;;;;;2.30;2.20;;;;;;;;;;1574705;29;22186;-47
2022/01/21 12:15:04;;;;;;;2.83;2.63;;;;;;;;;;1592051;29;22462;-45
2022/01/21 12:17:46;;;;;;;2.47;2.38;;;;;;;;;;1603233;29;21854;-44
2022/01/21 12:19:10;;;;;;;3.38;2.20;;;;;;;;;;1607111;29;22278;-44
2022/01/21 12:20:07;;;;;;;2.15;2.05;;;;;;;;;;1600307;29;22593;-53
2022/01/21 12:21:04;;;;;;;2.58;2.45;;;;;;;;;;1587708;29;22007;-49
2022/01/21 12:21:58;;;;;;;2.47;2.33;;;;;;;;;;1584745;29;22269;-47
2022/01/21 12:23:12;;;;;;;2.22;2.13;;;;;;;;;;1598654;29;21780;-53
2022/01/21 12:24:11;;;;;;;2.25;2.15;;;;;;;;;;1590508;29;22009;-54
2022/01/21 12:25:10;;;;;;;2.22;2.13;;;;;;;;;;1596271;29;22116;-51
2022/01/21 12:26:20;;;;;;;3.47;1.80;;;;;;;;;;1597268;29;21831;-50
2022/01/21 12:27:13;;;;;;;2.17;2.07;;;;;;;;;;1594203;29;22291;-51
2022/01/21 12:28:20;;;;;;;2.55;2.35;;;;;;;;;;1602382;29;22102;-49
2022/01/21 12:29:25;;;;;;;2.90;2.70;;;;;;;;;;1591570;29;22959;-52
2022/01/21 12:30:31;;;;;;;2.50;2.40;;;;;;;;;;1599823;29;23130;-48
2022/01/21 12:31:50;;;;;;;2.35;2.25;;;;;;;;;;1593495;29;22855;-48
2022/01/21 12:32:54;;;;;;;4.65;2.60;;;;;;;;;;1593743;29;21914;-50
2022/01/21 12:34:03;;;;;;;2.20;2.10;;;;;;;;;;1594446;29;22049;-48
2022/01/21 12:35:17;;;;;;;3.88;2.17;;;;;;;;;;1589085;29;22223;-44
2022/01/21 12:36:12;;;;;;;2.80;2.60;;;;;;;;;;1595560;29;22421;-48
2022/01/21 12:37:12;;;;;;;2.83;2.63;;;;;;;;;;1585741;29;23446;-46
2022/01/21 12:39:42;;;;;;;2.88;2.60;;;;;;;;;;1591579;29;23753;-52
2022/01/21 12:40:37;;;;;;;2.13;2.03;;;;;;;;;;1589373;29;22326;-50
2022/01/21 12:41:43;;;;;;;2.55;2.35;;;;;;;;;;1589423;29;27829;-46
2022/01/21 12:42:36;;;;;;;3.42;2.10;;;;;;;;;;1593705;29;21901;-47
2022/01/21 12:43:48;;;;;;;2.85;2.65;;;;;;;;;;1594166;29;21926;-52
2022/01/21 12:44:41;;;;;;;2.80;2.60;;;;;;;;;;1590372;29;23947;-50
2022/01/21 12:45:35;;;;;;;2.20;2.10;;;;;;;;;;1585850;29;21969;-43
2022/01/21 12:46:35;;;;;;;2.45;2.35;;;;;;;;;;1580748;29;22534;-45
2022/01/21 12:47:37;;;;;;;2.25;2.15;;;;;;;;;;1586560;29;22435;-52
2022/01/21 12:48:33;;;;;;;2.72;2.53;;;;;;;;;;1586013;29;22779;-52
2022/01/21 12:49:42;;;;;;;3.72;2.30;;;;;;;;;;1579869;29;22137;-50
2022/01/21 12:50:40;;;;;;;2.33;2.22;;;;;;;;;;1589451;29;22806;-50
2022/01/21 12:51:57;;;;;;;4.28;2.30;;;;;;;;;;1586577;29;22230;-43
2022/01/21 12:52:52;;;;;;;2.35;2.25;;;;;;;;;;1581729;29;23143;-51
2022/01/21 12:56:38;;;;;;;2.40;2.30;;;;;;;;;;1584131;29;21803;-52
2022/01/21 12:57:32;;;;;;;2.95;2.13;;;;;;;;;;1586976;29;23216;-50
2022/01/21 12:58:29;;;;;;;4.00;2.47;;;;;;;;;;1577895;29;21956;-52
2022/01/21 12:59:23;;;;;;;2.67;2.58;;;;;;;;;;1590188;29;22141;-51
2022/01/21 13:00:18;;;;;;;2.40;2.20;;;;;;;;;;1597923;29;21828;-48
2022/01/21 13:01:14;;;;;;;2.35;2.15;;;;;;;;;;1599700;29;22493;-49
2022/01/21 13:02:08;;;;;;;2.72;2.53;;;;;;;;;;1589284;29;23601;-55
2022/01/21 13:03:13;;;;;;;2.50;2.40;;;;;;;;;;1581725;29;22582;-44
2022/01/21 13:04:17;;;;;;;2.35;2.15;;;;;;;;;;1585056;29;22099;-51
2022/01/21 13:05:19;;;;;;;3.85;1.92;;;;;;;;;;1579048;29;22246;-49
